Hillsview, South Dakota
Current Conditions -  °F | °C
As of 6:05 PM on Monday 22 Dec 2014 (Local Time) from KMBG Reporting Station
Light Snow Light Snow  
Wind Chill: 20°   Ceiling: 600
Heat Index: 32°   Visibility: 1mi
Dew Point: 30°   Wind: 20mph
Humidity: 92%   Direction: 340°NNW
Pressure: 29.53"   Gusts: 25mph
Location:  45.7737°N, 99.5895°W
Report Text: KMBG 230005Z AUTO 34017G22KT 1SM -SN BR BKN006 OVC010 00/M01 A2953 RMK AO2 P0001 T00001011
Loading
Personal Weather Stations






























Interactive Weather Map New forecast layout! Learn more

10-Day Weather Forecast

Advertisements
Track Severe Weather on mobile